Time;durP1;ratioP1;P1;durP2;ratioP2;P2;SDS_P1;SDS_P2;PMS_P1;PMS_P2;Temp;Humidity;BMP_temperature;BMP_pressure;BME280_temperature;BME280_humidity;BME280_pressure;Samples;Min_cycle;Max_cycle;Signal;HPM_P1;HPM_P2
2023/03/01 00:00:49;;;;;;;24.90;17.33;;;;;;;;;;5134562;27;20043;-76
2023/03/01 00:03:15;;;;;;;25.98;18.17;;;;;;;;;;5153253;27;20043;-76
2023/03/01 00:05:45;;;;;;;31.27;19.60;;;;;;;;;;5116095;27;20050;-76
2023/03/01 00:08:11;;;;;;;26.45;19.00;;;;;;;;;;5151040;27;20039;-76
2023/03/01 00:10:37;;;;;;;28.92;19.60;;;;;;;;;;5114356;28;20046;-76
2023/03/01 00:13:05;;;;;;;27.67;20.02;;;;;;;;;;5132754;27;20114;-76
2023/03/01 00:15:31;;;;;;;29.38;19.52;;;;;;;;;;5127627;27;20050;-76
2023/03/01 00:17:57;;;;;;;26.95;18.75;;;;;;;;;;5136380;27;20072;-75
2023/03/01 00:20:23;;;;;;;27.58;20.25;;;;;;;;;;5147761;27;20123;-76
2023/03/01 00:22:49;;;;;;;31.15;21.20;;;;;;;;;;5125749;27;20054;-75
2023/03/01 00:25:15;;;;;;;28.75;21.30;;;;;;;;;;5130568;27;20061;-76
2023/03/01 00:27:41;;;;;;;32.13;19.80;;;;;;;;;;5136082;27;20043;-75
2023/03/01 00:30:08;;;;;;;30.77;21.33;;;;;;;;;;5135032;27;20032;-76
2023/03/01 00:32:34;;;;;;;30.50;21.98;;;;;;;;;;5117924;27;20083;-75
2023/03/01 00:35:00;;;;;;;30.73;21.42;;;;;;;;;;5118074;27;20419;-76
2023/03/01 00:37:26;;;;;;;33.92;22.67;;;;;;;;;;5100753;27;20099;-75
2023/03/01 00:39:52;;;;;;;34.85;22.88;;;;;;;;;;5136343;27;20031;-76
2023/03/01 00:42:18;;;;;;;30.85;21.23;;;;;;;;;;5135742;27;20047;-75
2023/03/01 00:44:44;;;;;;;31.40;22.85;;;;;;;;;;5134626;27;20042;-76
2023/03/01 00:47:10;;;;;;;34.15;23.10;;;;;;;;;;5134883;27;20126;-75
2023/03/01 00:49:36;;;;;;;32.78;22.65;;;;;;;;;;5135047;27;20063;-76
2023/03/01 00:52:02;;;;;;;33.13;23.52;;;;;;;;;;5135881;27;20039;-76
2023/03/01 00:54:30;;;;;;;33.10;22.58;;;;;;;;;;5134448;27;20047;-76
2023/03/01 00:56:56;;;;;;;33.95;23.70;;;;;;;;;;5151526;27;20038;-76
2023/03/01 00:59:22;;;;;;;35.75;23.38;;;;;;;;;;5121425;27;20111;-75
2023/03/01 01:01:49;;;;;;;34.67;23.55;;;;;;;;;;5100163;27;20043;-76
2023/03/01 01:04:15;;;;;;;34.58;23.02;;;;;;;;;;5135574;27;20434;-76
2023/03/01 01:06:42;;;;;;;36.40;23.52;;;;;;;;;;5134818;27;20054;-75
2023/03/01 01:09:16;;;;;;;35.58;24.13;;;;;;;;;;5113117;27;20091;-75
2023/03/01 01:11:43;;;;;;;35.47;24.10;;;;;;;;;;5127150;27;20039;-76
2023/03/01 01:14:09;;;;;;;32.92;23.52;;;;;;;;;;5135403;27;20051;-76
2023/03/01 01:16:35;;;;;;;32.40;24.02;;;;;;;;;;5118267;27;20368;-76
2023/03/01 01:19:01;;;;;;;32.17;22.40;;;;;;;;;;5135480;27;20394;-76
2023/03/01 01:21:30;;;;;;;32.88;23.25;;;;;;;;;;5111884;27;20054;-76
2023/03/01 01:23:57;;;;;;;34.33;23.55;;;;;;;;;;5116906;27;20122;-76
2023/03/01 01:26:25;;;;;;;34.90;23.45;;;;;;;;;;5105292;27;20380;-76
2023/03/01 01:28:51;;;;;;;37.05;24.23;;;;;;;;;;5135188;27;20491;-76
2023/03/01 01:31:17;;;;;;;35.80;23.67;;;;;;;;;;5115102;27;20078;-76
2023/03/01 01:33:44;;;;;;;32.00;23.45;;;;;;;;;;5117542;27;20054;-76
2023/03/01 01:36:10;;;;;;;36.60;24.50;;;;;;;;;;5136230;27;20042;-75
2023/03/01 01:38:37;;;;;;;35.50;25.02;;;;;;;;;;5135067;27;20053;-76
2023/03/01 01:41:03;;;;;;;35.25;24.55;;;;;;;;;;5137513;27;20039;-76
2023/03/01 01:43:31;;;;;;;33.05;24.55;;;;;;;;;;5116209;27;20043;-76
2023/03/01 01:46:01;;;;;;;37.70;26.17;;;;;;;;;;5107476;27;20039;-76
2023/03/01 01:48:48;;;;;;;36.70;26.35;;;;;;;;;;5135032;27;20458;-75
2023/03/01 01:51:17;;;;;;;40.50;26.15;;;;;;;;;;5133373;27;20047;-76
2023/03/01 01:53:44;;;;;;;35.85;25.00;;;;;;;;;;5134603;27;20050;-75
2023/03/01 01:56:11;;;;;;;37.90;26.52;;;;;;;;;;5134625;27;20122;-76
2023/03/01 01:58:38;;;;;;;35.92;26.45;;;;;;;;;;5101578;27;20043;-76
2023/03/01 02:01:04;;;;;;;40.58;26.90;;;;;;;;;;5099474;27;20134;-75
2023/03/01 02:03:33;;;;;;;37.15;25.90;;;;;;;;;;5134362;27;20043;-75
2023/03/01 02:06:05;;;;;;;37.83;26.48;;;;;;;;;;5114126;27;20463;-75
2023/03/01 02:08:32;;;;;;;39.45;26.95;;;;;;;;;;5115287;27;20047;-75
2023/03/01 02:10:59;;;;;;;37.70;26.10;;;;;;;;;;5112855;28;20047;-76
2023/03/01 02:13:25;;;;;;;36.30;24.42;;;;;;;;;;5099554;28;20438;-76
2023/03/01 02:15:52;;;;;;;34.28;22.98;;;;;;;;;;5107919;27;20118;-75
2023/03/01 02:18:19;;;;;;;29.58;21.65;;;;;;;;;;5116706;27;20075;-75
2023/03/01 02:21:09;;;;;;;27.10;20.00;;;;;;;;;;5130791;27;20433;-76
2023/03/01 02:23:35;;;;;;;26.27;19.92;;;;;;;;;;5116688;27;20054;-76
2023/03/01 02:26:19;;;;;;;29.55;20.90;;;;;;;;;;5145121;27;20436;-75
2023/03/01 02:28:45;;;;;;;28.83;21.25;;;;;;;;;;5135382;27;20046;-75
2023/03/01 02:34:00;;;;;;;26.23;19.35;;;;;;;;;;5134350;27;20043;-75
2023/03/01 02:36:31;;;;;;;26.83;20.10;;;;;;;;;;5112683;27;20141;-76
2023/03/01 02:38:58;;;;;;;26.52;19.05;;;;;;;;;;5150739;27;20039;-75
2023/03/01 02:41:25;;;;;;;23.83;18.73;;;;;;;;;;5115421;27;20134;-76
2023/03/01 02:43:51;;;;;;;22.70;17.08;;;;;;;;;;5134588;27;20134;-75
2023/03/01 02:46:19;;;;;;;22.95;17.83;;;;;;;;;;5145459;27;20031;-75
2023/03/01 02:48:45;;;;;;;24.00;17.55;;;;;;;;;;5095931;27;20076;-76
2023/03/01 02:51:19;;;;;;;25.17;18.33;;;;;;;;;;5129075;27;20073;-76
2023/03/01 02:53:59;;;;;;;21.45;17.42;;;;;;;;;;5150904;27;20042;-76
2023/03/01 02:56:26;;;;;;;23.38;17.20;;;;;;;;;;5118307;27;20130;-76
2023/03/01 02:58:52;;;;;;;23.88;17.45;;;;;;;;;;5133923;27;20463;-76
2023/03/01 03:01:19;;;;;;;24.15;18.00;;;;;;;;;;5126623;27;20046;-76
2023/03/01 03:03:45;;;;;;;21.00;16.35;;;;;;;;;;5140026;27;20043;-76
2023/03/01 03:06:11;;;;;;;22.40;16.90;;;;;;;;;;5133917;27;20041;-76
2023/03/01 03:08:37;;;;;;;23.50;17.33;;;;;;;;;;5121987;27;20452;-76
2023/03/01 03:11:03;;;;;;;23.20;16.80;;;;;;;;;;5132589;27;20076;-76
2023/03/01 03:13:32;;;;;;;20.80;16.75;;;;;;;;;;5110288;28;20046;-76
2023/03/01 03:15:58;;;;;;;21.48;16.45;;;;;;;;;;5133634;27;20054;-76
2023/03/01 03:18:27;;;;;;;24.73;18.02;;;;;;;;;;5147939;27;20074;-75
2023/03/01 03:20:53;;;;;;;22.13;16.80;;;;;;;;;;5140273;27;20437;-76
2023/03/01 03:23:21;;;;;;;21.80;17.35;;;;;;;;;;5138586;27;20054;-75
2023/03/01 03:25:48;;;;;;;21.40;16.20;;;;;;;;;;5097716;28;20520;-75
2023/03/01 03:28:15;;;;;;;22.00;16.80;;;;;;;;;;5130948;28;20395;-76
2023/03/01 03:30:42;;;;;;;24.48;18.55;;;;;;;;;;5139491;27;20068;-76
2023/03/01 03:33:09;;;;;;;24.52;18.58;;;;;;;;;;5109891;28;20392;-75
2023/03/01 03:35:39;;;;;;;25.33;18.27;;;;;;;;;;5133305;27;20042;-75
2023/03/01 03:38:09;;;;;;;27.42;20.40;;;;;;;;;;5114649;28;20044;-76
2023/03/01 03:40:39;;;;;;;22.90;19.08;;;;;;;;;;5127392;27;20057;-76
2023/03/01 03:43:07;;;;;;;24.85;19.35;;;;;;;;;;5094034;28;20047;-75
2023/03/01 03:45:34;;;;;;;26.98;21.08;;;;;;;;;;5120308;28;20039;-75
2023/03/01 03:48:01;;;;;;;26.67;19.85;;;;;;;;;;5114528;28;20054;-76
2023/03/01 03:50:27;;;;;;;27.15;21.10;;;;;;;;;;5117421;27;20046;-75
2023/03/01 03:52:53;;;;;;;27.98;21.27;;;;;;;;;;5118185;27;20047;-76
2023/03/01 03:55:19;;;;;;;26.88;20.50;;;;;;;;;;5101474;27;20054;-76
2023/03/01 03:57:53;;;;;;;25.65;19.75;;;;;;;;;;5123106;27;20068;-75
2023/03/01 04:00:20;;;;;;;24.92;19.85;;;;;;;;;;5135033;27;20035;-75
2023/03/01 04:02:47;;;;;;;27.48;19.27;;;;;;;;;;5134641;27;20046;-75
2023/03/01 04:05:14;;;;;;;25.90;20.25;;;;;;;;;;5137026;27;20043;-75
2023/03/01 04:07:40;;;;;;;24.15;18.73;;;;;;;;;;5116345;27;20048;-75
2023/03/01 04:10:08;;;;;;;25.73;19.08;;;;;;;;;;5097671;28;20048;-75
2023/03/01 04:12:34;;;;;;;23.63;18.20;;;;;;;;;;5109929;27;20433;-75
2023/03/01 04:15:01;;;;;;;27.10;20.17;;;;;;;;;;5153753;27;20043;-75
2023/03/01 04:17:27;;;;;;;28.20;19.35;;;;;;;;;;5109988;27;20050;-75
2023/03/01 04:19:53;;;;;;;25.02;19.25;;;;;;;;;;5136627;27;20043;-76
2023/03/01 04:22:19;;;;;;;23.63;18.13;;;;;;;;;;5117483;27;20126;-76
2023/03/01 04:24:45;;;;;;;21.98;16.45;;;;;;;;;;5137614;27;20452;-75
2023/03/01 04:27:11;;;;;;;22.38;16.83;;;;;;;;;;5144992;27;20080;-75
2023/03/01 04:29:37;;;;;;;18.98;15.50;;;;;;;;;;5136556;27;20051;-75
2023/03/01 04:32:04;;;;;;;20.83;14.57;;;;;;;;;;5100775;27;20043;-75
2023/03/01 04:34:30;;;;;;;19.48;14.63;;;;;;;;;;5148772;27;20057;-76
2023/03/01 04:36:56;;;;;;;18.67;14.48;;;;;;;;;;5147903;27;20032;-75
2023/03/01 04:39:23;;;;;;;17.05;13.68;;;;;;;;;;5126824;27;20130;-76
2023/03/01 04:41:49;;;;;;;16.90;13.75;;;;;;;;;;5147856;27;20126;-76
2023/03/01 04:44:15;;;;;;;16.95;13.32;;;;;;;;;;5143864;27;20122;-75
2023/03/01 04:46:41;;;;;;;16.48;12.98;;;;;;;;;;5137317;27;20127;-75
2023/03/01 04:49:07;;;;;;;17.33;13.50;;;;;;;;;;5142787;27;20039;-75
2023/03/01 04:51:33;;;;;;;14.45;12.02;;;;;;;;;;5142349;27;20046;-76
2023/03/01 04:54:00;;;;;;;16.77;12.38;;;;;;;;;;5118495;27;20047;-76
2023/03/01 04:56:26;;;;;;;17.55;12.85;;;;;;;;;;5117434;27;20092;-75
2023/03/01 04:58:54;;;;;;;14.30;12.30;;;;;;;;;;5134913;27;20091;-76
2023/03/01 05:01:21;;;;;;;15.00;12.45;;;;;;;;;;5130060;27;20043;-76
2023/03/01 05:03:49;;;;;;;15.57;12.38;;;;;;;;;;5124953;27;20047;-75
2023/03/01 05:06:15;;;;;;;16.38;12.70;;;;;;;;;;5135649;27;20045;-75
2023/03/01 05:08:50;;;;;;;15.57;12.70;;;;;;;;;;5138221;27;20133;-76
2023/03/01 05:11:16;;;;;;;15.75;12.15;;;;;;;;;;5152253;27;20051;-76
2023/03/01 05:13:42;;;;;;;14.93;12.20;;;;;;;;;;5137855;27;20096;-76
2023/03/01 05:16:12;;;;;;;15.63;11.55;;;;;;;;;;5113189;27;20128;-76
2023/03/01 05:18:38;;;;;;;16.23;12.25;;;;;;;;;;5119974;27;20128;-76
2023/03/01 05:21:17;;;;;;;15.48;12.05;;;;;;;;;;5136281;27;20395;-75
2023/03/01 05:23:43;;;;;;;13.95;12.25;;;;;;;;;;5136330;27;20256;-75
2023/03/01 05:26:09;;;;;;;13.85;11.77;;;;;;;;;;5110314;27;20059;-75
2023/03/01 05:28:35;;;;;;;13.10;10.43;;;;;;;;;;5135282;27;20426;-75
2023/03/01 05:31:01;;;;;;;15.52;11.55;;;;;;;;;;5135281;27;20039;-76
2023/03/01 05:33:28;;;;;;;14.55;11.52;;;;;;;;;;5138996;27;20045;-76
2023/03/01 05:35:54;;;;;;;13.48;10.05;;;;;;;;;;5135190;27;20095;-75
2023/03/01 05:38:20;;;;;;;15.65;11.70;;;;;;;;;;5125520;27;20050;-75
2023/03/01 05:40:47;;;;;;;13.75;11.52;;;;;;;;;;5117838;27;20483;-75
2023/03/01 05:43:14;;;;;;;14.23;11.85;;;;;;;;;;5134293;27;20043;-75
2023/03/01 05:45:41;;;;;;;13.82;11.52;;;;;;;;;;5133111;27;20398;-75
2023/03/01 05:48:07;;;;;;;13.88;11.82;;;;;;;;;;5134020;27;20073;-75
2023/03/01 05:50:35;;;;;;;14.07;10.98;;;;;;;;;;5135039;27;20039;-75
2023/03/01 05:53:04;;;;;;;13.57;11.70;;;;;;;;;;5134663;27;20054;-75
2023/03/01 05:55:30;;;;;;;14.45;11.05;;;;;;;;;;5134458;27;20144;-75
2023/03/01 05:58:00;;;;;;;12.85;10.70;;;;;;;;;;5098922;27;20047;-76
2023/03/01 06:00:26;;;;;;;12.88;11.02;;;;;;;;;;5134967;27;20039;-75
2023/03/01 06:02:54;;;;;;;14.93;11.32;;;;;;;;;;5134291;27;20475;-75
2023/03/01 06:05:20;;;;;;;13.98;11.43;;;;;;;;;;5116270;27;20043;-75
2023/03/01 06:07:46;;;;;;;14.25;11.23;;;;;;;;;;5115237;27;20050;-75
2023/03/01 06:10:13;;;;;;;13.35;11.95;;;;;;;;;;5138899;27;20103;-76
2023/03/01 06:12:40;;;;;;;13.57;11.90;;;;;;;;;;5148581;27;20133;-75
2023/03/01 06:15:06;;;;;;;14.05;11.52;;;;;;;;;;5112052;27;20039;-75
2023/03/01 06:17:37;;;;;;;15.38;11.82;;;;;;;;;;5114546;27;20393;-76
2023/03/01 06:20:03;;;;;;;14.45;11.57;;;;;;;;;;5107098;27;20072;-76
2023/03/01 06:22:29;;;;;;;13.82;11.75;;;;;;;;;;5134350;27;20043;-77
2023/03/01 06:24:55;;;;;;;17.75;12.10;;;;;;;;;;5117184;27;20129;-76
2023/03/01 06:27:21;;;;;;;14.48;11.88;;;;;;;;;;5118532;27;20085;-76
2023/03/01 06:29:48;;;;;;;15.70;12.57;;;;;;;;;;5122392;27;20654;-77
2023/03/01 06:32:14;;;;;;;17.67;12.88;;;;;;;;;;5131964;27;20046;-76
2023/03/01 06:34:40;;;;;;;15.63;12.40;;;;;;;;;;5136231;27;20042;-76
2023/03/01 06:37:07;;;;;;;16.92;12.93;;;;;;;;;;5134780;27;20031;-77
2023/03/01 06:39:33;;;;;;;16.38;13.23;;;;;;;;;;5131914;27;20438;-77
2023/03/01 06:41:59;;;;;;;16.60;13.30;;;;;;;;;;5119258;27;20372;-76
2023/03/01 06:44:26;;;;;;;18.92;14.77;;;;;;;;;;5127790;27;20082;-76
2023/03/01 06:46:52;;;;;;;19.02;14.48;;;;;;;;;;5115778;27;20043;-77
2023/03/01 06:49:18;;;;;;;19.80;14.63;;;;;;;;;;5142466;27;20042;-76
2023/03/01 06:51:44;;;;;;;20.65;14.88;;;;;;;;;;5151271;27;20713;-76
2023/03/01 06:54:10;;;;;;;21.02;15.60;;;;;;;;;;5130454;27;20051;-76
2023/03/01 06:56:36;;;;;;;19.88;15.35;;;;;;;;;;5152200;27;20126;-76
2023/03/01 06:59:03;;;;;;;20.30;15.68;;;;;;;;;;5146609;27;20468;-76
2023/03/01 07:01:29;;;;;;;19.00;15.18;;;;;;;;;;5128030;27;20506;-76
2023/03/01 07:03:55;;;;;;;18.77;15.10;;;;;;;;;;5116078;27;20559;-76
2023/03/01 07:06:22;;;;;;;17.27;14.45;;;;;;;;;;5137684;27;20078;-77
2023/03/01 07:08:48;;;;;;;19.00;15.18;;;;;;;;;;5132643;27;20055;-76
2023/03/01 07:11:14;;;;;;;20.40;15.35;;;;;;;;;;5140349;27;20099;-77
2023/03/01 07:13:40;;;;;;;18.98;14.30;;;;;;;;;;5153638;27;20185;-76
2023/03/01 07:16:06;;;;;;;17.15;13.88;;;;;;;;;;5151362;27;20092;-77
2023/03/01 07:18:32;;;;;;;19.02;14.65;;;;;;;;;;5098252;27;20030;-77
2023/03/01 07:20:58;;;;;;;20.73;16.23;;;;;;;;;;5127161;27;20091;-76
2023/03/01 07:23:24;;;;;;;18.02;14.35;;;;;;;;;;5125315;28;20476;-76
2023/03/01 07:25:54;;;;;;;20.95;14.95;;;;;;;;;;5118184;27;20091;-78
2023/03/01 07:28:21;;;;;;;22.20;15.48;;;;;;;;;;5137006;27;20081;-77
2023/03/01 07:30:47;;;;;;;21.00;15.18;;;;;;;;;;5118882;27;20126;-77
2023/03/01 07:33:13;;;;;;;21.25;16.08;;;;;;;;;;5135629;27;20476;-77
2023/03/01 07:35:39;;;;;;;23.48;16.27;;;;;;;;;;5137383;27;20146;-76
2023/03/01 07:38:05;;;;;;;24.75;18.27;;;;;;;;;;5135723;27;20047;-76
2023/03/01 07:40:31;;;;;;;25.40;18.27;;;;;;;;;;5137239;27;20121;-76
2023/03/01 07:42:57;;;;;;;23.83;16.60;;;;;;;;;;5118600;27;20043;-77
2023/03/01 07:45:24;;;;;;;27.80;18.58;;;;;;;;;;5137020;27;20050;-77
2023/03/01 07:47:51;;;;;;;31.58;20.48;;;;;;;;;;5118096;27;20372;-77
2023/03/01 07:50:17;;;;;;;26.55;18.65;;;;;;;;;;5118591;27;20063;-77
2023/03/01 07:52:45;;;;;;;31.65;19.70;;;;;;;;;;5136678;27;20095;-77
2023/03/01 07:55:11;;;;;;;30.30;19.75;;;;;;;;;;5136460;27;20035;-77
2023/03/01 07:57:38;;;;;;;27.85;20.13;;;;;;;;;;5101248;27;20046;-77
2023/03/01 08:00:04;;;;;;;31.42;19.55;;;;;;;;;;5136321;27;20035;-77
2023/03/01 08:02:31;;;;;;;29.15;18.50;;;;;;;;;;5118066;27;20484;-78
2023/03/01 08:04:57;;;;;;;25.58;18.52;;;;;;;;;;5118085;27;20399;-77
2023/03/01 08:07:23;;;;;;;28.45;18.63;;;;;;;;;;5117553;27;20039;-77
2023/03/01 08:09:49;;;;;;;33.65;22.58;;;;;;;;;;5137867;27;20055;-77
2023/03/01 08:12:16;;;;;;;32.40;22.10;;;;;;;;;;5150926;27;20389;-77
2023/03/01 08:14:42;;;;;;;27.73;20.65;;;;;;;;;;5155304;27;20440;-77
2023/03/01 08:17:08;;;;;;;35.60;22.92;;;;;;;;;;5137897;27;20043;-75
2023/03/01 08:19:34;;;;;;;33.08;22.42;;;;;;;;;;5148864;27;20422;-76
2023/03/01 08:22:04;;;;;;;33.35;23.40;;;;;;;;;;5136167;27;20035;-76
2023/03/01 08:24:30;;;;;;;40.90;24.73;;;;;;;;;;5125248;27;20055;-75
2023/03/01 08:26:56;;;;;;;44.97;24.70;;;;;;;;;;5135194;27;20410;-75
2023/03/01 08:29:24;;;;;;;39.30;23.77;;;;;;;;;;5136652;27;20043;-75
2023/03/01 08:31:50;;;;;;;32.33;21.25;;;;;;;;;;5117499;27;20047;-75
2023/03/01 08:34:17;;;;;;;32.72;21.25;;;;;;;;;;5123903;27;20050;-75
2023/03/01 08:36:44;;;;;;;33.88;22.48;;;;;;;;;;5134774;27;20060;-75
2023/03/01 08:39:11;;;;;;;35.22;22.15;;;;;;;;;;5128036;27;20043;-75
2023/03/01 08:41:38;;;;;;;35.50;21.80;;;;;;;;;;5127994;27;20088;-75
2023/03/01 08:44:04;;;;;;;35.67;20.70;;;;;;;;;;5115573;27;20100;-75
2023/03/01 08:46:31;;;;;;;34.30;20.73;;;;;;;;;;5111366;27;20517;-75
2023/03/01 08:48:57;;;;;;;32.35;21.75;;;;;;;;;;5134860;27;20047;-75
2023/03/01 08:51:24;;;;;;;32.42;20.90;;;;;;;;;;5137925;27;20034;-74
2023/03/01 08:53:50;;;;;;;36.35;21.92;;;;;;;;;;5130650;27;20076;-74
2023/03/01 08:56:18;;;;;;;31.85;20.80;;;;;;;;;;5115627;27;20080;-73
2023/03/01 08:58:45;;;;;;;34.03;20.40;;;;;;;;;;5135544;27;20054;-76
2023/03/01 09:01:12;;;;;;;29.52;19.60;;;;;;;;;;5142333;27;20114;-73
2023/03/01 09:03:38;;;;;;;25.98;19.08;;;;;;;;;;5118139;27;20042;-74
2023/03/01 09:06:05;;;;;;;35.92;19.67;;;;;;;;;;5135205;27;20400;-74
2023/03/01 09:08:31;;;;;;;29.35;19.38;;;;;;;;;;5134905;27;20111;-74
2023/03/01 09:10:57;;;;;;;33.50;20.50;;;;;;;;;;5141598;27;20263;-74
2023/03/01 09:13:24;;;;;;;28.42;19.58;;;;;;;;;;5140973;27;20046;-75
2023/03/01 09:15:51;;;;;;;28.88;19.63;;;;;;;;;;5116827;27;20127;-74
2023/03/01 09:18:17;;;;;;;30.35;19.30;;;;;;;;;;5155869;27;20175;-74
2023/03/01 09:20:43;;;;;;;27.63;17.95;;;;;;;;;;5137584;27;20043;-74
2023/03/01 09:23:09;;;;;;;29.40;19.25;;;;;;;;;;5147758;27;20034;-74
2023/03/01 09:25:35;;;;;;;29.70;18.70;;;;;;;;;;5108936;27;20043;-74
2023/03/01 09:28:01;;;;;;;26.27;17.98;;;;;;;;;;5114217;28;20146;-74
2023/03/01 09:30:27;;;;;;;25.15;17.88;;;;;;;;;;5096100;28;20143;-74
2023/03/01 09:32:53;;;;;;;25.17;17.08;;;;;;;;;;5113757;28;20487;-74
2023/03/01 09:35:19;;;;;;;27.15;16.15;;;;;;;;;;5119308;27;20043;-74
2023/03/01 09:37:46;;;;;;;24.27;17.65;;;;;;;;;;5134352;27;20433;-74
2023/03/01 09:40:28;;;;;;;23.33;16.00;;;;;;;;;;5125368;27;20039;-74
2023/03/01 09:43:03;;;;;;;19.33;14.38;;;;;;;;;;5155088;27;20593;-74
2023/03/01 09:45:38;;;;;;;26.73;15.73;;;;;;;;;;5119042;27;20400;-73
2023/03/01 09:48:06;;;;;;;24.02;15.00;;;;;;;;;;5134795;27;20364;-73
2023/03/01 09:50:35;;;;;;;18.70;14.88;;;;;;;;;;5154932;27;20073;-73
2023/03/01 09:53:03;;;;;;;22.90;15.55;;;;;;;;;;5155100;27;20042;-73
2023/03/01 09:55:32;;;;;;;19.33;14.18;;;;;;;;;;5137343;27;20058;-74
2023/03/01 09:58:16;;;;;;;19.25;12.55;;;;;;;;;;5135128;27;20077;-73
2023/03/01 10:00:43;;;;;;;16.90;12.07;;;;;;;;;;5136380;27;20050;-73
2023/03/01 10:03:13;;;;;;;20.33;13.07;;;;;;;;;;5136213;27;20142;-73
2023/03/01 10:05:44;;;;;;;19.85;13.15;;;;;;;;;;5133702;27;20440;-73
2023/03/01 10:08:30;;;;;;;15.32;12.38;;;;;;;;;;5095068;28;20047;-73
2023/03/01 10:10:57;;;;;;;17.58;12.85;;;;;;;;;;5086434;27;20121;-73
2023/03/01 10:13:31;;;;;;;16.05;12.32;;;;;;;;;;5150222;27;20420;-73
2023/03/01 10:16:02;;;;;;;16.83;11.63;;;;;;;;;;5140154;27;20055;-73
2023/03/01 10:18:31;;;;;;;13.70;10.52;;;;;;;;;;5127888;27;20364;-73
2023/03/01 10:21:01;;;;;;;15.75;11.43;;;;;;;;;;5114746;27;20116;-72
2023/03/01 10:23:28;;;;;;;14.50;11.25;;;;;;;;;;5130629;27;20122;-72
2023/03/01 10:26:05;;;;;;;14.18;12.05;;;;;;;;;;5130902;27;20058;-72
2023/03/01 10:28:34;;;;;;;16.73;12.50;;;;;;;;;;5112342;27;20124;-72
2023/03/01 10:31:00;;;;;;;14.95;12.18;;;;;;;;;;5131047;27;20074;-72
2023/03/01 10:33:30;;;;;;;18.52;12.73;;;;;;;;;;5133018;27;20530;-72
2023/03/01 10:35:57;;;;;;;14.30;11.48;;;;;;;;;;5131046;27;20053;-72
2023/03/01 10:38:23;;;;;;;14.05;11.50;;;;;;;;;;5151036;27;20074;-72
2023/03/01 10:41:01;;;;;;;14.77;12.07;;;;;;;;;;5151219;27;20087;-72
2023/03/01 10:43:32;;;;;;;12.93;11.25;;;;;;;;;;5151018;27;20493;-73
2023/03/01 10:45:58;;;;;;;14.10;10.93;;;;;;;;;;5132666;27;20085;-72
2023/03/01 10:48:27;;;;;;;13.52;11.73;;;;;;;;;;5149390;27;20159;-72
2023/03/01 10:50:59;;;;;;;13.70;11.23;;;;;;;;;;5130473;27;20047;-72
2023/03/01 10:53:30;;;;;;;12.18;10.88;;;;;;;;;;5130278;27;20441;-73
2023/03/01 10:56:04;;;;;;;14.15;11.10;;;;;;;;;;5112071;27;20118;-72
2023/03/01 10:58:31;;;;;;;13.35;11.18;;;;;;;;;;5130119;27;20707;-72
2023/03/01 11:00:58;;;;;;;14.45;11.30;;;;;;;;;;5112000;28;20448;-72
2023/03/01 11:03:27;;;;;;;12.10;10.80;;;;;;;;;;5111422;27;20051;-72
2023/03/01 11:05:55;;;;;;;12.05;10.60;;;;;;;;;;5126429;27;20071;-72
2023/03/01 11:08:44;;;;;;;12.90;10.48;;;;;;;;;;5108906;28;20051;-72
2023/03/01 11:11:13;;;;;;;11.45;10.25;;;;;;;;;;5100866;28;20047;-72
2023/03/01 11:13:48;;;;;;;11.65;9.40;;;;;;;;;;5109342;28;20471;-72
2023/03/01 11:16:14;;;;;;;9.88;8.30;;;;;;;;;;5109626;28;20104;-72
2023/03/01 11:18:40;;;;;;;11.05;9.73;;;;;;;;;;5130146;27;20042;-72
2023/03/01 11:21:08;;;;;;;10.98;9.80;;;;;;;;;;5145551;27;20157;-72
2023/03/01 11:23:34;;;;;;;10.45;8.93;;;;;;;;;;5138700;27;20047;-72
2023/03/01 11:26:03;;;;;;;11.00;8.75;;;;;;;;;;5150202;27;20046;-72
2023/03/01 11:28:30;;;;;;;10.32;9.18;;;;;;;;;;5150429;27;20456;-72
2023/03/01 11:31:08;;;;;;;10.30;8.57;;;;;;;;;;5131845;27;20035;-72
2023/03/01 11:33:44;;;;;;;10.07;8.52;;;;;;;;;;5131417;27;20050;-72
2023/03/01 11:36:16;;;;;;;11.00;8.25;;;;;;;;;;5132110;27;20095;-72
2023/03/01 11:38:43;;;;;;;8.82;7.90;;;;;;;;;;5150683;27;20038;-72
2023/03/01 11:41:14;;;;;;;10.30;8.32;;;;;;;;;;5130905;27;20096;-72
2023/03/01 11:43:54;;;;;;;8.82;7.70;;;;;;;;;;5130717;27;20051;-72
2023/03/01 11:46:20;;;;;;;9.10;6.88;;;;;;;;;;5150128;27;20054;-72
2023/03/01 11:49:05;;;;;;;8.73;7.82;;;;;;;;;;5150092;27;20095;-72
2023/03/01 11:51:31;;;;;;;10.88;7.88;;;;;;;;;;5150082;27;20055;-72
2023/03/01 11:54:15;;;;;;;11.50;7.30;;;;;;;;;;5149864;27;20030;-72
2023/03/01 11:56:45;;;;;;;8.57;6.80;;;;;;;;;;5149957;27;20139;-72
2023/03/01 11:59:22;;;;;;;10.30;7.60;;;;;;;;;;5150762;27;20071;-73
2023/03/01 12:02:10;;;;;;;8.60;7.25;;;;;;;;;;5114112;27;20108;-72
2023/03/01 12:04:54;;;;;;;7.60;6.15;;;;;;;;;;5131674;27;20051;-72
2023/03/01 12:07:35;;;;;;;7.57;6.43;;;;;;;;;;5116376;27;20039;-73
2023/03/01 12:10:11;;;;;;;8.52;7.22;;;;;;;;;;5122577;27;20057;-74
2023/03/01 12:12:55;;;;;;;9.40;7.40;;;;;;;;;;5124065;27;20524;-73
2023/03/01 12:15:28;;;;;;;9.68;7.47;;;;;;;;;;5115930;28;20051;-73
2023/03/01 12:17:59;;;;;;;9.52;7.68;;;;;;;;;;5097346;28;20086;-73
2023/03/01 12:20:28;;;;;;;10.00;7.53;;;;;;;;;;5097564;28;20035;-73
2023/03/01 12:23:12;;;;;;;9.07;8.00;;;;;;;;;;5080501;28;20096;-73
2023/03/01 12:25:47;;;;;;;9.90;7.90;;;;;;;;;;5097031;28;20067;-73
2023/03/01 12:28:19;;;;;;;10.77;8.25;;;;;;;;;;5097122;28;20103;-73
2023/03/01 12:30:55;;;;;;;11.38;8.30;;;;;;;;;;5115610;28;20434;-72
2023/03/01 12:33:24;;;;;;;10.60;8.35;;;;;;;;;;5114552;28;20055;-73
2023/03/01 12:36:08;;;;;;;9.70;8.45;;;;;;;;;;5115884;28;20047;-72
2023/03/01 12:39:01;;;;;;;10.68;8.93;;;;;;;;;;5115333;28;20043;-72
2023/03/01 12:41:43;;;;;;;13.18;10.43;;;;;;;;;;5083895;28;20043;-72
2023/03/01 12:44:15;;;;;;;12.45;10.20;;;;;;;;;;5115709;28;20043;-72
2023/03/01 12:46:59;;;;;;;12.93;9.93;;;;;;;;;;5115190;28;20086;-72
2023/03/01 12:49:28;;;;;;;13.77;10.65;;;;;;;;;;5115553;28;20113;-72
2023/03/01 12:52:15;;;;;;;12.60;10.30;;;;;;;;;;5096635;28;20051;-72
2023/03/01 12:54:41;;;;;;;14.38;10.82;;;;;;;;;;5114849;28;20047;-72
2023/03/01 12:57:12;;;;;;;12.32;9.77;;;;;;;;;;5096341;28;20392;-72
2023/03/01 13:00:00;;;;;;;10.73;8.40;;;;;;;;;;5097267;28;20043;-71
2023/03/01 13:02:52;;;;;;;10.77;7.68;;;;;;;;;;5056977;28;20052;-72
2023/03/01 13:05:18;;;;;;;12.93;7.88;;;;;;;;;;5076282;28;20058;-72
2023/03/01 13:07:49;;;;;;;10.88;8.15;;;;;;;;;;5134010;27;20043;-73
2023/03/01 13:10:42;;;;;;;11.88;8.40;;;;;;;;;;5116979;27;20047;-72
2023/03/01 13:13:19;;;;;;;11.98;9.15;;;;;;;;;;5094679;27;20059;-74
2023/03/01 13:15:47;;;;;;;10.95;8.38;;;;;;;;;;5113983;27;20043;-74
2023/03/01 13:18:16;;;;;;;11.00;8.88;;;;;;;;;;5132117;27;20046;-73
2023/03/01 13:20:42;;;;;;;11.43;8.32;;;;;;;;;;5132459;27;20139;-75
2023/03/01 13:23:24;;;;;;;13.25;9.02;;;;;;;;;;5132245;27;20728;-75
2023/03/01 13:25:59;;;;;;;12.07;9.02;;;;;;;;;;5113876;27;20380;-75
2023/03/01 13:28:34;;;;;;;11.20;9.23;;;;;;;;;;5096503;27;20047;-76
2023/03/01 13:31:01;;;;;;;11.73;9.25;;;;;;;;;;5113571;27;20044;-75
2023/03/01 13:33:27;;;;;;;12.45;9.43;;;;;;;;;;5113518;27;20081;-75
2023/03/01 13:35:57;;;;;;;11.38;9.40;;;;;;;;;;5096563;27;20434;-75
2023/03/01 13:38:42;;;;;;;12.65;9.80;;;;;;;;;;5131870;27;20446;-75
2023/03/01 13:41:08;;;;;;;13.70;9.80;;;;;;;;;;5113198;27;20589;-75
2023/03/01 13:43:38;;;;;;;13.48;9.38;;;;;;;;;;5131767;27;20102;-75
2023/03/01 13:46:09;;;;;;;14.63;10.43;;;;;;;;;;5114662;27;20301;-75
2023/03/01 13:48:35;;;;;;;12.18;10.05;;;;;;;;;;5119369;27;20096;-78
2023/03/01 13:51:03;;;;;;;13.50;10.38;;;;;;;;;;5124674;27;20035;-74
2023/03/01 13:53:31;;;;;;;13.82;9.85;;;;;;;;;;5119705;27;20074;-74
2023/03/01 13:56:03;;;;;;;12.75;9.40;;;;;;;;;;5137828;27;20058;-74
2023/03/01 13:58:30;;;;;;;13.07;10.10;;;;;;;;;;5135554;27;20055;-75
2023/03/01 14:01:01;;;;;;;12.00;9.25;;;;;;;;;;5134522;27;20043;-74
2023/03/01 14:03:27;;;;;;;11.75;9.05;;;;;;;;;;5134332;27;20062;-74
2023/03/01 14:06:08;;;;;;;12.48;8.88;;;;;;;;;;5129976;27;20122;-74
2023/03/01 14:08:36;;;;;;;11.20;9.00;;;;;;;;;;5116591;27;20048;-75
2023/03/01 14:11:02;;;;;;;12.10;9.15;;;;;;;;;;5125137;27;20050;-74
2023/03/01 14:13:47;;;;;;;12.70;8.85;;;;;;;;;;5116034;27;20051;-74
2023/03/01 14:16:29;;;;;;;10.63;9.07;;;;;;;;;;5095262;28;20488;-74
2023/03/01 14:19:01;;;;;;;12.50;9.88;;;;;;;;;;5109470;27;20135;-73
2023/03/01 14:21:27;;;;;;;12.30;9.55;;;;;;;;;;5094794;28;20096;-74
2023/03/01 14:23:53;;;;;;;11.73;9.32;;;;;;;;;;5139455;27;20057;-74
2023/03/01 14:26:23;;;;;;;12.80;9.43;;;;;;;;;;5155013;27;20038;-73
2023/03/01 14:28:49;;;;;;;12.95;9.55;;;;;;;;;;5119126;27;20130;-74
2023/03/01 14:31:34;;;;;;;13.00;10.35;;;;;;;;;;5155077;27;20034;-74
2023/03/01 14:34:01;;;;;;;12.95;10.35;;;;;;;;;;5134003;27;20380;-74